• Join FlightAware (Why Join?)
  • Login
  • US Flag 
01:44AM EDT


 

Airport Tracker/Info


-or-


 

Live Flight TrackerFlight Track Log ✈ AUB1737 ✈ 23-Apr-2013 ✈ LATI / TIA - EDDM / MUC

Flight Track Log - Related Links

Times and Time Zones

All times are in EDT time to prevent confusion due to time zone crossing. See the AUB1737 flight status page for this flight to view local times or setup timezone preferences in your user account.

Time Position Orientation Groundspeed Altitude Reporting Facility
EDT Latitude Longitude Course Direction KTS MPH feet Rate Location/Type
06:06AM 41.9335 19.2078 324° Northwest  Level Estimated
06:07AM 42.0198 19.1215 323° Northwest  Level Estimated
06:08AM 42.1059 19.0350 323° Northwest  Level Estimated
06:09AM 42.1920 18.9483 323° Northwest  Level Estimated
06:10AM 42.2781 18.8613 323° Northwest  Level Estimated
06:11AM 42.3641 18.7741 323° Northwest  Level Estimated
06:12AM 42.4500 18.6866 323° Northwest  Level Estimated
06:13AM 42.5358 18.5989 323° Northwest  Level Estimated
06:14AM 42.6216 18.5110 323° Northwest  Level Estimated
06:15AM 42.7073 18.4228 323° Northwest  Level Estimated
06:16AM 42.7929 18.3344 323° Northwest  Level Estimated
06:17AM 42.8785 18.2457 323° Northwest  Level Estimated
06:18AM 42.9640 18.1568 323° Northwest  Level Estimated
06:19AM 43.0495 18.0676 323° Northwest  Level Estimated
06:20AM 43.1348 17.9782 323° Northwest  Level Estimated
06:21AM 43.2201 17.8885 323° Northwest  Level Estimated
06:22AM 43.3054 17.7986 322° Northwest  Level Estimated
06:23AM 43.3905 17.7085 322° Northwest  Level Estimated
06:24AM 43.4756 17.6181 322° Northwest  Level Estimated
06:25AM 43.5606 17.5274 322° Northwest  Level Estimated
06:26AM 43.6456 17.4365 322° Northwest  Level Estimated
06:27AM 43.7304 17.3453 322° Northwest  Level Estimated
06:28AM 43.8152 17.2538 322° Northwest  Level Estimated
06:29AM 43.9000 17.1621 322° Northwest  Level Estimated
06:30AM 43.9846 17.0702 322° Northwest  Level Estimated
06:31AM 44.0692 16.9779 322° Northwest  Level Estimated
06:32AM 44.1537 16.8854 322° Northwest  Level Estimated
06:33AM 44.2381 16.7927 322° Northwest  Level Estimated
06:34AM 44.3225 16.6997 322° Northwest  Level Estimated
06:35AM 44.4067 16.6064 322° Northwest  Level Estimated
06:36AM 44.4910 16.5128 322° Northwest  Level Estimated
06:37AM 44.5751 16.4190 322° Northwest  Level Estimated
06:38AM 44.6591 16.3249 321° Northwest  Level Estimated
06:39AM 44.7431 16.2305 321° Northwest  Level Estimated
06:40AM 44.8270 16.1359 321° Northwest  Level Estimated
06:41AM 44.9108 16.0409 321° Northwest  Level Estimated
06:42AM 44.9945 15.9457 321° Northwest  Level Estimated
06:43AM 45.0782 15.8502 321° Northwest  Level Estimated
06:44AM 45.1618 15.7545 321° Northwest  Level Estimated
06:45AM 45.2453 15.6584 321° Northwest  Level Estimated
06:46AM 45.3287 15.5621 321° Northwest  Level Estimated
06:47AM 45.4120 15.4655 321° Northwest  Level Estimated
06:48AM 45.4952 15.3686 321° Northwest  Level Estimated
06:49AM 45.5784 15.2714 321° Northwest  Level Estimated
06:50AM 45.6615 15.1740 321° Northwest  Level Estimated
06:51AM 45.7445 15.0762 321° Northwest  Level Estimated
06:52AM 45.8274 14.9781 321° Northwest  Level Estimated
06:53AM 45.9103 14.8798 320° Northwest  Level Estimated
06:54AM 45.9930 14.7812 320° Northwest  Level Estimated
06:55AM 46.0757 14.6822 320° Northwest  Level Estimated
06:56AM 46.1583 14.5830 320° Northwest  Level Estimated
06:57AM 46.2407 14.4835 320° Northwest  Level Estimated
06:58AM 46.3232 14.3836 320° Northwest  Level Estimated
06:59AM 46.4055 14.2835 320° Northwest  Level Estimated
07:00AM 46.4877 14.1831 320° Northwest  Level Estimated
07:01AM 46.5699 14.0823 320° Northwest  Level Estimated
07:02AM 46.6519 13.9813 320° Northwest  Level Estimated
07:03AM 46.7339 13.8800 320° Northwest  Level Estimated
07:04AM 46.8158 13.7783 320° Northwest  Level Estimated
07:05AM 46.8975 13.6763 320° Northwest  Level Estimated
07:06AM 46.9793 13.5741 320° Northwest  Level Estimated
07:07AM 47.0608 13.4715 319° Northwest  Level Estimated
07:08AM 47.1424 13.3686 319° Northwest  Level Estimated
07:09AM 47.2238 13.2654 319° Northwest  Level Estimated
07:10AM 47.3051 13.1618 319° Northwest  Level Estimated
07:11AM 47.3863 13.0580 319° Northwest  Level Estimated
07:12AM 47.4675 12.9538 319° Northwest  Level Estimated
07:13AM 47.5485 12.8493 319° Northwest  Level Estimated
07:14AM 47.6295 12.7445 319° Northwest  Level Estimated
07:15AM 47.7103 12.6393 319° Northwest  Level Estimated
07:16AM 47.7911 12.5338 319° Northwest  Level Estimated
07:17AM 47.8717 12.4280 319° Northwest  Level Estimated
07:18AM 47.9523 12.3219 319° Northwest  Level Estimated
07:19AM 48.0328 12.2155 319° Northwest  Level Estimated
07:20AM 48.1132 12.1087 318° Northwest  Level Estimated
07:21AM 48.1934 12.0015 318° Northwest  Level Estimated
07:22AM 48.2736 11.8941 318° Northwest  Level Estimated
07:23AM 48.3537 11.7863 318° Northwest  Level Estimated
07:24AM 48.3538 11.7861 317° Northwest  Level Estimated
07:25AM 48.3538 11.7861 318° Northwest  Level Estimated
07:26AM 48.3538 11.7861 318° Northwest  Level Estimated
07:27AM 48.3538 11.7861 318° Northwest  Level Estimated
07:28AM 48.3538 11.7861 318° Northwest  Level Estimated
07:29AM 48.3538 11.7861 318° Northwest  Level Estimated
07:30AM 48.3538 11.7861 318° Northwest  Level Estimated
07:31AM 48.3538 11.7861 318° Northwest  Level Estimated
07:32AM 48.3538 11.7861 318° Northwest  Level Estimated
07:33AM 48.3538 11.7861 318° Northwest  Level Estimated
07:34AM 48.3538 11.7861 318° Northwest  Level Estimated
07:35AM 48.3538 11.7861 318° Northwest  Level Estimated
07:36AM 48.3538 11.7861 318° Northwest  Level Estimated
07:37AM 48.3538 11.7861 318° Northwest  Level Estimated
07:38AM 48.3538 11.7861 318° Northwest  Level Estimated
07:39AM 48.3538 11.7861 318° Northwest  Level Estimated